createdAt,value
2023-01-25T00:00:41.178Z,23.92
2023-01-25T00:01:55.293Z,25.02
2023-01-25T00:03:00.404Z,22.95
2023-01-25T00:04:02.378Z,23.48
2023-01-25T00:05:07.857Z,23.08
2023-01-25T00:06:10.098Z,24.05
2023-01-25T00:07:17.337Z,24.05
2023-01-25T00:08:21.276Z,24.15
2023-01-25T00:09:27.034Z,24.38
2023-01-25T00:10:29.083Z,24.92
2023-01-25T00:11:34.097Z,22.85
2023-01-25T00:12:36.098Z,23.50
2023-01-25T00:13:40.655Z,23.27
2023-01-25T00:14:42.590Z,24.73
2023-01-25T00:15:47.126Z,24.88
2023-01-25T00:16:49.208Z,24.35
2023-01-25T00:17:53.983Z,24.73
2023-01-25T00:18:55.973Z,23.88
2023-01-25T00:20:00.550Z,23.27
2023-01-25T00:21:12.166Z,23.20
2023-01-25T00:23:21.233Z,22.55
2023-01-25T00:24:26.316Z,23.95
2023-01-25T00:25:28.373Z,23.05
2023-01-25T00:26:33.603Z,25.25
2023-01-25T00:27:35.666Z,24.88
2023-01-25T00:28:40.629Z,23.58
2023-01-25T00:29:42.820Z,22.83
2023-01-25T00:30:47.402Z,23.70
2023-01-25T00:32:02.461Z,25.48
2023-01-25T00:33:30.028Z,25.42
2023-01-25T00:34:51.672Z,25.77
2023-01-25T00:35:57.018Z,24.42
2023-01-25T00:37:05.657Z,21.63
2023-01-25T00:38:33.237Z,21.95
2023-01-25T00:39:35.270Z,21.98
2023-01-25T00:40:39.809Z,22.25
2023-01-25T00:41:42.867Z,21.63
2023-01-25T00:42:47.478Z,22.50
2023-01-25T00:43:49.455Z,21.77
2023-01-25T00:44:54.076Z,20.92
2023-01-25T00:46:00.850Z,21.77
2023-01-25T00:47:05.510Z,22.65
2023-01-25T00:48:10.143Z,22.10
2023-01-25T00:49:19.949Z,22.17
2023-01-25T00:50:24.550Z,21.13
2023-01-25T00:51:26.652Z,21.67
2023-01-25T00:52:31.392Z,21.50
2023-01-25T00:53:36.110Z,23.33
2023-01-25T00:54:40.699Z,23.23
2023-01-25T00:55:51.201Z,21.92
2023-01-25T00:56:56.652Z,20.77
2023-01-25T00:58:01.308Z,18.98
2023-01-25T00:59:03.306Z,20.35
2023-01-25T01:00:09.536Z,21.20
2023-01-25T01:01:12.523Z,21.40
2023-01-25T01:02:17.309Z,20.77
2023-01-25T01:03:19.453Z,20.63
2023-01-25T01:04:25.706Z,21.55
2023-01-25T01:05:30.509Z,21.58
2023-01-25T01:06:32.660Z,21.58
2023-01-25T01:07:37.490Z,21.17
2023-01-25T01:08:43.079Z,21.70
2023-01-25T01:09:47.778Z,20.73
2023-01-25T01:10:49.863Z,21.02
2023-01-25T01:11:54.717Z,21.15
2023-01-25T01:12:56.884Z,20.13
2023-01-25T01:14:02.191Z,20.42
2023-01-25T01:15:08.402Z,20.92
2023-01-25T01:16:12.284Z,21.95
2023-01-25T01:17:17.077Z,22.52
2023-01-25T01:18:19.203Z,20.88
2023-01-25T01:19:24.230Z,21.05
2023-01-25T01:20:26.320Z,19.30
2023-01-25T01:21:31.422Z,20.02
2023-01-25T01:22:33.426Z,21.13
2023-01-25T01:23:39.502Z,20.88
2023-01-25T01:24:46.860Z,20.52
2023-01-25T01:25:48.997Z,20.80
2023-01-25T01:26:53.674Z,20.00
2023-01-25T01:27:55.755Z,20.45
2023-01-25T01:29:01.675Z,19.92
2023-01-25T01:30:04.588Z,20.30
2023-01-25T01:31:11.393Z,19.60
2023-01-25T01:32:16.198Z,19.58
2023-01-25T01:33:18.315Z,21.35
2023-01-25T01:34:23.012Z,19.85
2023-01-25T01:35:24.999Z,19.95
2023-01-25T01:36:32.420Z,19.25
2023-01-25T01:37:34.422Z,20.38
2023-01-25T01:38:39.350Z,19.52
2023-01-25T01:39:43.963Z,20.10
2023-01-25T01:40:49.311Z,20.02
2023-01-25T01:41:53.954Z,19.75
2023-01-25T01:43:01.252Z,19.75
2023-01-25T01:44:06.692Z,19.45
2023-01-25T01:45:38.551Z,20.25
2023-01-25T01:46:43.614Z,20.73
2023-01-25T01:47:48.874Z,22.08
2023-01-25T01:48:57.739Z,20.55
2023-01-25T01:50:03.778Z,22.08
2023-01-25T01:51:19.470Z,20.80
2023-01-25T01:52:30.351Z,20.42
2023-01-25T01:53:33.866Z,20.88
2023-01-25T01:54:46.003Z,20.08
2023-01-25T01:55:51.877Z,20.10
2023-01-25T01:57:01.489Z,21.23
2023-01-25T01:58:04.662Z,19.95
2023-01-25T01:59:10.907Z,21.13
2023-01-25T02:00:16.835Z,23.23
2023-01-25T02:01:21.975Z,22.40
2023-01-25T02:02:25.126Z,20.60
2023-01-25T02:03:31.500Z,20.83
2023-01-25T02:04:35.467Z,20.85
2023-01-25T02:05:46.947Z,21.08
2023-01-25T02:06:53.676Z,20.10
2023-01-25T02:07:59.137Z,20.52
2023-01-25T02:09:02.019Z,20.38
2023-01-25T02:10:08.964Z,20.67
2023-01-25T02:11:13.909Z,19.85
2023-01-25T02:12:19.231Z,21.52
2023-01-25T02:13:21.961Z,20.48
2023-01-25T02:14:27.387Z,19.80
2023-01-25T02:15:37.666Z,19.75
2023-01-25T02:16:42.548Z,21.90
2023-01-25T02:17:44.542Z,24.85
2023-01-25T02:18:49.793Z,22.48
2023-01-25T02:19:56.920Z,20.67
2023-01-25T02:21:03.971Z,19.80
2023-01-25T02:22:13.528Z,20.25
2023-01-25T02:23:27.880Z,20.20
2023-01-25T02:24:33.379Z,19.17
2023-01-25T02:25:41.572Z,34.15
2023-01-25T02:26:43.836Z,33.92
2023-01-25T02:27:54.617Z,25.50
2023-01-25T02:29:01.158Z,20.77
2023-01-25T02:30:06.686Z,18.67
2023-01-25T02:31:08.747Z,20.33
2023-01-25T02:32:13.655Z,19.08
2023-01-25T02:33:16.204Z,20.77
2023-01-25T02:34:20.810Z,18.83
2023-01-25T02:35:36.103Z,18.60
2023-01-25T02:36:40.875Z,19.75
2023-01-25T02:37:42.864Z,18.30
2023-01-25T02:38:54.007Z,18.90
2023-01-25T02:39:56.010Z,18.73
2023-01-25T02:41:09.444Z,20.80
2023-01-25T02:42:11.424Z,21.25
2023-01-25T02:43:16.137Z,19.60
2023-01-25T02:44:21.527Z,19.85
2023-01-25T02:45:32.506Z,20.58
2023-01-25T02:46:36.967Z,20.50
2023-01-25T02:47:41.805Z,19.40
2023-01-25T02:48:43.810Z,20.08
2023-01-25T02:49:48.556Z,22.27
2023-01-25T02:50:50.639Z,22.08
2023-01-25T02:51:57.857Z,20.55
2023-01-25T02:52:59.968Z,19.40
2023-01-25T02:54:06.152Z,20.00
2023-01-25T02:55:09.816Z,21.27
2023-01-25T02:56:17.592Z,18.40
2023-01-25T02:57:21.672Z,18.92
2023-01-25T02:58:27.749Z,19.92
2023-01-25T02:59:29.833Z,21.85
2023-01-25T03:00:34.458Z,20.60
2023-01-25T03:01:38.473Z,20.02
2023-01-25T03:02:43.418Z,20.40
2023-01-25T03:03:45.597Z,21.27
2023-01-25T03:04:51.283Z,18.55
2023-01-25T03:05:53.471Z,19.02
2023-01-25T03:06:58.842Z,19.77
2023-01-25T03:08:01.057Z,19.45
2023-01-25T03:09:07.040Z,18.83
2023-01-25T03:10:10.843Z,19.58
2023-01-25T03:11:18.105Z,21.52
2023-01-25T03:12:20.233Z,17.35
2023-01-25T03:13:24.890Z,16.80
2023-01-25T03:14:26.941Z,17.83
2023-01-25T03:15:31.635Z,16.90
2023-01-25T03:16:33.982Z,17.88
2023-01-25T03:17:39.018Z,18.38
2023-01-25T03:18:41.415Z,17.33
2023-01-25T03:19:46.135Z,17.90
2023-01-25T03:20:48.106Z,18.10
2023-01-25T03:21:52.769Z,16.80
2023-01-25T03:22:55.372Z,17.08
2023-01-25T03:24:03.282Z,17.75
2023-01-25T03:25:07.351Z,19.48
2023-01-25T03:26:13.687Z,18.55
2023-01-25T03:27:18.709Z,18.10
2023-01-25T03:28:23.344Z,18.85
2023-01-25T03:29:25.319Z,18.65
2023-01-25T03:30:29.951Z,18.75
2023-01-25T03:31:32.119Z,18.73
2023-01-25T03:32:38.118Z,19.17
2023-01-25T03:33:40.797Z,19.27
2023-01-25T03:34:45.508Z,18.05
2023-01-25T03:35:52.347Z,19.40
2023-01-25T03:36:56.981Z,17.92
2023-01-25T03:37:58.965Z,18.15
2023-01-25T03:39:03.621Z,20.85
2023-01-25T03:40:07.176Z,19.70
2023-01-25T03:41:13.111Z,21.05
2023-01-25T03:42:20.304Z,20.55
2023-01-25T03:43:24.983Z,19.08
2023-01-25T03:44:27.204Z,31.80
2023-01-25T03:45:32.008Z,20.88
2023-01-25T03:46:34.017Z,20.50
2023-01-25T03:47:38.702Z,19.23
2023-01-25T03:48:40.733Z,19.40
2023-01-25T03:49:45.623Z,19.63
2023-01-25T03:50:52.069Z,20.20
2023-01-25T03:51:58.093Z,18.95
2023-01-25T03:53:03.789Z,18.92
2023-01-25T03:54:10.397Z,19.85
2023-01-25T03:55:12.517Z,19.17
2023-01-25T03:56:20.682Z,20.70
2023-01-25T03:57:25.919Z,21.98
2023-01-25T03:58:31.376Z,18.92
2023-01-25T03:59:33.696Z,18.20
2023-01-25T04:00:38.442Z,19.52
2023-01-25T04:01:40.742Z,18.20
2023-01-25T04:02:45.331Z,20.33
2023-01-25T04:03:47.337Z,20.15
2023-01-25T04:04:52.333Z,18.50
2023-01-25T04:05:55.139Z,19.52
2023-01-25T04:06:59.844Z,19.20
2023-01-25T04:08:01.908Z,17.40
2023-01-25T04:09:06.783Z,18.20
2023-01-25T04:10:10.680Z,19.80
2023-01-25T04:11:15.502Z,19.42
2023-01-25T04:12:17.622Z,19.00
2023-01-25T04:13:27.065Z,20.17
2023-01-25T04:14:43.627Z,19.02
2023-01-25T04:15:49.241Z,18.95
2023-01-25T04:16:51.325Z,17.95
2023-01-25T04:17:56.372Z,19.92
2023-01-25T04:18:58.628Z,18.77
2023-01-25T04:20:03.445Z,19.08
2023-01-25T04:21:06.402Z,16.70
2023-01-25T04:22:11.465Z,15.70
2023-01-25T04:23:16.089Z,16.83
2023-01-25T04:24:18.172Z,16.55
2023-01-25T04:25:22.935Z,17.38
2023-01-25T04:26:25.187Z,16.95
2023-01-25T04:27:29.775Z,15.05
2023-01-25T04:28:35.589Z,16.05
2023-01-25T04:29:41.889Z,16.90
2023-01-25T04:30:44.275Z,17.30
2023-01-25T04:31:49.167Z,16.60
2023-01-25T04:32:51.573Z,15.75
2023-01-25T04:33:56.548Z,16.98
2023-01-25T04:34:58.638Z,16.70
2023-01-25T04:36:03.587Z,16.17
2023-01-25T04:37:05.546Z,16.75
2023-01-25T04:38:10.370Z,18.05
2023-01-25T04:39:12.300Z,17.65
2023-01-25T04:40:16.878Z,17.10
2023-01-25T04:41:18.816Z,17.85
2023-01-25T04:42:23.428Z,15.32
2023-01-25T04:43:26.341Z,16.45
2023-01-25T04:44:33.616Z,16.60
2023-01-25T04:45:36.482Z,16.13
2023-01-25T04:46:41.234Z,17.17
2023-01-25T04:47:43.232Z,17.63
2023-01-25T04:48:48.074Z,16.73
2023-01-25T04:49:50.143Z,15.82
2023-01-25T04:50:54.716Z,15.68
2023-01-25T04:51:56.843Z,16.23
2023-01-25T04:53:01.429Z,16.30
2023-01-25T04:54:04.817Z,15.63
2023-01-25T04:55:10.418Z,16.70
2023-01-25T04:56:12.627Z,14.43
2023-01-25T04:57:17.139Z,15.32
2023-01-25T04:58:19.756Z,15.35
2023-01-25T04:59:24.250Z,15.20
2023-01-25T05:00:29.408Z,15.35
2023-01-25T05:01:34.686Z,15.48
2023-01-25T05:02:36.790Z,15.52
2023-01-25T05:03:41.388Z,15.90
2023-01-25T05:04:43.372Z,16.88
2023-01-25T05:05:49.835Z,15.45
2023-01-25T05:06:51.777Z,15.80
2023-01-25T05:07:56.279Z,16.13
2023-01-25T05:08:58.227Z,16.42
2023-01-25T05:10:02.798Z,15.90
2023-01-25T05:11:05.020Z,16.27
2023-01-25T05:12:13.646Z,16.35
2023-01-25T05:13:15.572Z,16.05
2023-01-25T05:14:20.127Z,15.52
2023-01-25T05:15:22.127Z,16.85
2023-01-25T05:16:29.296Z,15.23
2023-01-25T05:17:31.324Z,15.15
2023-01-25T05:18:47.421Z,15.00
2023-01-25T05:19:49.735Z,16.38
2023-01-25T05:20:57.829Z,16.23
2023-01-25T05:22:00.170Z,15.43
2023-01-25T05:23:04.806Z,14.00
2023-01-25T05:24:07.476Z,13.88
2023-01-25T05:25:32.648Z,14.55
2023-01-25T05:26:49.747Z,14.05
2023-01-25T05:27:51.726Z,13.77
2023-01-25T05:28:53.773Z,14.32
2023-01-25T05:30:00.015Z,13.85
2023-01-25T05:31:04.825Z,14.32
2023-01-25T05:32:14.600Z,14.50
2023-01-25T05:33:16.633Z,13.73
2023-01-25T05:34:21.335Z,13.90
2023-01-25T05:35:26.135Z,15.40
2023-01-25T05:36:28.105Z,16.33
2023-01-25T05:37:32.823Z,16.60
2023-01-25T05:38:34.915Z,15.65
2023-01-25T05:39:39.733Z,17.20
2023-01-25T05:40:42.090Z,23.15
2023-01-25T05:41:46.801Z,22.50
2023-01-25T05:42:53.950Z,28.15
2023-01-25T05:43:58.587Z,26.40
2023-01-25T05:45:00.604Z,24.08
2023-01-25T05:46:06.010Z,20.85
2023-01-25T05:47:16.420Z,19.60
2023-01-25T05:48:18.448Z,16.60
2023-01-25T05:49:23.638Z,18.42
2023-01-25T05:50:26.573Z,16.25
2023-01-25T05:51:31.212Z,13.98
2023-01-25T05:52:33.289Z,15.23
2023-01-25T05:53:37.919Z,17.98
2023-01-25T05:54:40.212Z,17.92
2023-01-25T05:55:44.824Z,17.20
2023-01-25T05:56:50.085Z,15.90
2023-01-25T05:57:58.030Z,13.65
2023-01-25T05:59:01.708Z,15.10
2023-01-25T06:00:07.991Z,15.07
2023-01-25T06:01:10.233Z,14.10
2023-01-25T06:02:17.659Z,15.15
2023-01-25T06:03:19.862Z,14.32
2023-01-25T06:04:24.687Z,15.23
2023-01-25T06:05:26.765Z,14.73
2023-01-25T06:06:31.708Z,14.50
2023-01-25T06:07:36.367Z,14.60
2023-01-25T06:08:41.436Z,15.77
2023-01-25T06:09:43.539Z,13.98
2023-01-25T06:10:48.147Z,14.25
2023-01-25T06:11:50.310Z,14.07
2023-01-25T06:13:00.762Z,13.80
2023-01-25T06:14:02.759Z,13.77
2023-01-25T06:15:08.757Z,14.85
2023-01-25T06:16:11.258Z,14.00
2023-01-25T06:17:18.779Z,14.30
2023-01-25T06:18:21.544Z,15.27
2023-01-25T06:19:26.124Z,15.07
2023-01-25T06:20:28.295Z,16.85
2023-01-25T06:21:33.056Z,16.00
2023-01-25T06:22:35.144Z,15.75
2023-01-25T06:23:39.956Z,15.50
2023-01-25T06:24:42.024Z,15.52
2023-01-25T06:25:46.661Z,15.82
2023-01-25T06:26:48.681Z,15.73
2023-01-25T06:27:53.322Z,16.38
2023-01-25T06:28:55.478Z,16.73
2023-01-25T06:30:00.752Z,18.67
2023-01-25T06:31:07.788Z,19.60
2023-01-25T06:32:12.633Z,19.00
2023-01-25T06:33:17.578Z,18.15
2023-01-25T06:34:22.837Z,21.00
2023-01-25T06:35:25.087Z,21.85
2023-01-25T06:36:29.967Z,22.98
2023-01-25T06:37:31.993Z,21.52
2023-01-25T06:38:37.005Z,20.75
2023-01-25T06:39:38.974Z,18.38
2023-01-25T06:40:43.650Z,17.30
2023-01-25T06:41:48.362Z,19.27
2023-01-25T06:42:50.486Z,17.08
2023-01-25T06:43:55.988Z,18.98
2023-01-25T06:44:57.953Z,19.98
2023-01-25T06:46:03.497Z,19.40
2023-01-25T06:47:05.679Z,19.20
2023-01-25T06:48:12.756Z,18.25
2023-01-25T06:49:20.568Z,17.92
2023-01-25T06:50:22.655Z,19.80
2023-01-25T06:51:27.365Z,18.77
2023-01-25T06:52:30.929Z,18.70
2023-01-25T06:53:38.466Z,17.75
2023-01-25T06:54:43.230Z,17.77
2023-01-25T06:55:45.169Z,17.50
2023-01-25T06:56:49.749Z,18.08
2023-01-25T06:57:51.862Z,18.33
2023-01-25T06:58:56.499Z,19.08
2023-01-25T06:59:58.485Z,18.15
2023-01-25T07:01:04.649Z,18.27
2023-01-25T07:02:06.822Z,18.10
2023-01-25T07:03:11.783Z,19.65
2023-01-25T07:04:16.399Z,21.65
2023-01-25T07:05:21.357Z,21.90
2023-01-25T07:06:27.507Z,21.63
2023-01-25T07:07:29.725Z,20.13
2023-01-25T07:08:35.453Z,20.65
2023-01-25T07:09:40.347Z,17.70
2023-01-25T07:10:42.330Z,17.63
2023-01-25T07:11:47.520Z,17.42
2023-01-25T07:12:49.476Z,17.40
2023-01-25T07:13:54.164Z,20.88
2023-01-25T07:14:56.503Z,19.52
2023-01-25T07:16:02.937Z,18.83
2023-01-25T07:17:07.971Z,18.60
2023-01-25T07:18:16.267Z,19.17
2023-01-25T07:19:21.609Z,19.35
2023-01-25T07:20:26.460Z,18.55
2023-01-25T07:21:31.081Z,17.55
2023-01-25T07:22:37.752Z,18.25
2023-01-25T07:23:40.497Z,17.25
2023-01-25T07:24:50.007Z,18.17
2023-01-25T07:25:52.003Z,17.25
2023-01-25T07:26:56.760Z,16.80
2023-01-25T07:27:58.848Z,18.05
2023-01-25T07:29:03.536Z,17.70
2023-01-25T07:30:09.620Z,18.17
2023-01-25T07:31:12.021Z,19.15
2023-01-25T07:32:17.033Z,17.73
2023-01-25T07:33:19.011Z,19.25
2023-01-25T07:34:23.717Z,18.60
2023-01-25T07:35:28.231Z,19.92
2023-01-25T07:36:33.178Z,18.77
2023-01-25T07:37:35.297Z,19.13
2023-01-25T07:38:40.057Z,19.33
2023-01-25T07:39:48.602Z,20.45
2023-01-25T07:40:52.268Z,21.27
2023-01-25T07:41:56.749Z,20.48
2023-01-25T07:42:58.907Z,21.13
2023-01-25T07:44:03.482Z,19.90
2023-01-25T07:45:06.588Z,18.92
2023-01-25T07:46:14.064Z,16.92
2023-01-25T07:47:16.358Z,17.27
2023-01-25T07:48:22.522Z,18.63
2023-01-25T07:49:27.058Z,18.33
2023-01-25T07:50:31.580Z,17.90
2023-01-25T07:51:36.130Z,18.10
2023-01-25T07:52:38.162Z,19.20
2023-01-25T07:53:43.436Z,19.38
2023-01-25T07:54:50.003Z,21.92
2023-01-25T07:55:52.006Z,18.85
2023-01-25T07:56:57.904Z,19.02
2023-01-25T07:58:00.673Z,18.92
2023-01-25T07:59:08.325Z,19.38
2023-01-25T08:00:13.160Z,20.10
2023-01-25T08:01:19.829Z,19.80
2023-01-25T08:02:24.742Z,17.70
2023-01-25T08:03:26.774Z,18.40
2023-01-25T08:04:31.385Z,19.23
2023-01-25T08:05:35.873Z,16.90
2023-01-25T08:06:41.654Z,17.38
2023-01-25T08:07:46.176Z,17.40
2023-01-25T08:08:52.300Z,17.80
2023-01-25T08:09:56.822Z,17.38
2023-01-25T08:10:58.769Z,16.38
2023-01-25T08:12:03.524Z,16.88
2023-01-25T08:13:06.919Z,16.88
2023-01-25T08:14:11.585Z,15.63
2023-01-25T08:15:16.367Z,16.40
2023-01-25T08:16:20.253Z,19.85
2023-01-25T08:17:24.907Z,15.50
2023-01-25T08:18:29.410Z,16.60
2023-01-25T08:19:33.892Z,19.60
2023-01-25T08:20:38.408Z,22.45
2023-01-25T08:21:42.958Z,22.48
2023-01-25T08:22:47.569Z,22.67
2023-01-25T08:23:52.139Z,19.67
2023-01-25T08:24:57.254Z,16.90
2023-01-25T08:26:02.340Z,19.98
2023-01-25T08:27:06.970Z,21.00
2023-01-25T08:28:08.895Z,22.65
2023-01-25T08:29:14.150Z,21.20
2023-01-25T08:30:19.593Z,19.30
2023-01-25T08:31:23.052Z,16.05
2023-01-25T08:32:27.887Z,15.88
2023-01-25T08:33:29.857Z,16.85
2023-01-25T08:34:34.599Z,16.20
2023-01-25T08:35:39.221Z,17.33
2023-01-25T08:36:43.753Z,17.10
2023-01-25T08:37:48.248Z,17.58
2023-01-25T08:38:57.540Z,17.45
2023-01-25T08:40:02.081Z,16.27
2023-01-25T08:41:07.318Z,20.80
2023-01-25T08:42:11.855Z,22.90
2023-01-25T08:43:14.305Z,22.20
2023-01-25T08:44:22.429Z,19.45
2023-01-25T08:45:26.928Z,17.95
2023-01-25T08:46:33.576Z,17.58
2023-01-25T08:47:35.734Z,18.80
2023-01-25T08:48:40.593Z,15.57
2023-01-25T08:49:45.187Z,14.77
2023-01-25T08:50:49.756Z,16.00
2023-01-25T08:51:54.419Z,14.35
2023-01-25T08:52:56.505Z,14.80
2023-01-25T08:54:05.002Z,14.90
2023-01-25T08:55:10.206Z,16.10
2023-01-25T08:56:17.040Z,15.70
2023-01-25T08:57:21.584Z,15.88
2023-01-25T08:58:23.549Z,16.42
2023-01-25T08:59:28.074Z,15.88
2023-01-25T09:00:30.152Z,17.60
2023-01-25T09:01:34.852Z,16.23
2023-01-25T09:02:38.110Z,17.17
2023-01-25T09:03:44.494Z,17.55
2023-01-25T09:04:50.007Z,15.90
2023-01-25T09:05:54.962Z,15.95
2023-01-25T09:06:59.702Z,16.23
2023-01-25T09:08:05.871Z,15.95
2023-01-25T09:09:11.467Z,17.17
2023-01-25T09:10:16.322Z,17.55
2023-01-25T09:11:23.644Z,16.52
2023-01-25T09:12:28.344Z,18.33
2023-01-25T09:13:30.485Z,16.00
2023-01-25T09:14:35.203Z,16.15
2023-01-25T09:15:37.203Z,16.90
2023-01-25T09:16:42.184Z,16.90
2023-01-25T09:17:47.020Z,17.90
2023-01-25T09:18:50.731Z,18.85
2023-01-25T09:19:55.752Z,18.75
2023-01-25T09:21:03.501Z,18.83
2023-01-25T09:22:08.464Z,20.52
2023-01-25T09:23:13.270Z,21.45
2023-01-25T09:24:18.128Z,21.20
2023-01-25T09:25:20.191Z,18.30
2023-01-25T09:26:24.917Z,20.17
2023-01-25T09:27:29.677Z,24.30
2023-01-25T09:28:33.401Z,22.90
2023-01-25T09:29:39.574Z,20.73
2023-01-25T09:30:53.592Z,19.70
2023-01-25T09:32:04.453Z,19.98
2023-01-25T09:33:06.783Z,20.10
2023-01-25T09:34:12.369Z,19.90
2023-01-25T09:35:17.735Z,21.65
2023-01-25T09:36:22.476Z,23.33
2023-01-25T09:37:27.222Z,19.77
2023-01-25T09:38:29.445Z,23.38
2023-01-25T09:39:34.038Z,20.08
2023-01-25T09:40:44.414Z,23.48
2023-01-25T09:42:23.572Z,18.05
2023-01-25T09:43:41.188Z,18.42
2023-01-25T09:45:12.404Z,17.73
2023-01-25T09:46:29.096Z,16.48
2023-01-25T09:47:42.808Z,16.60
2023-01-25T09:49:07.393Z,17.38
2023-01-25T09:50:35.470Z,17.08
2023-01-25T09:51:59.879Z,18.35
2023-01-25T09:53:24.401Z,22.70
2023-01-25T09:54:33.756Z,22.73
2023-01-25T09:56:46.673Z,21.50
2023-01-25T09:57:51.107Z,22.05
2023-01-25T09:59:00.405Z,21.23
2023-01-25T10:00:12.266Z,19.02
2023-01-25T10:01:38.050Z,18.00
2023-01-25T10:02:52.058Z,19.23
2023-01-25T10:04:00.858Z,19.45
2023-01-25T10:05:11.200Z,20.42
2023-01-25T10:06:16.903Z,23.83
2023-01-25T10:07:31.019Z,23.05
2023-01-25T10:08:42.243Z,21.60
2023-01-25T10:09:54.667Z,18.73
2023-01-25T10:11:02.450Z,18.05
2023-01-25T10:12:15.627Z,22.95
2023-01-25T10:13:21.941Z,21.83
2023-01-25T10:14:28.081Z,20.92
2023-01-25T10:15:38.299Z,20.67
2023-01-25T10:16:53.366Z,19.98
2023-01-25T10:18:06.881Z,22.30
2023-01-25T10:19:22.748Z,24.85
2023-01-25T10:20:35.027Z,22.77
2023-01-25T10:21:43.977Z,20.90
2023-01-25T10:22:56.010Z,19.10
2023-01-25T10:24:13.380Z,20.48
2023-01-25T10:25:39.251Z,18.65
2023-01-25T10:26:45.369Z,18.85
2023-01-25T10:28:04.472Z,19.73
2023-01-25T10:29:15.735Z,21.85
2023-01-25T10:30:30.339Z,20.33
2023-01-25T10:31:43.024Z,22.30
2023-01-25T10:32:55.291Z,24.05
2023-01-25T10:34:01.889Z,19.52
2023-01-25T10:35:33.432Z,19.65
2023-01-25T10:36:39.335Z,21.15
2023-01-25T10:37:44.576Z,21.48
2023-01-25T10:38:49.930Z,22.85
2023-01-25T10:40:01.232Z,24.08
2023-01-25T10:41:10.040Z,20.55
2023-01-25T10:42:18.234Z,23.98
2023-01-25T10:43:25.341Z,22.55
2023-01-25T10:44:30.406Z,22.20
2023-01-25T10:45:32.586Z,18.75
2023-01-25T10:46:38.056Z,21.48
2023-01-25T10:47:45.633Z,21.20
2023-01-25T10:48:50.549Z,21.70
2023-01-25T10:49:57.662Z,21.20
2023-01-25T10:51:03.169Z,20.02
2023-01-25T10:52:14.715Z,20.90
2023-01-25T10:53:31.480Z,21.30
2023-01-25T10:54:38.994Z,21.23
2023-01-25T10:56:01.357Z,19.17
2023-01-25T10:57:09.431Z,20.17
2023-01-25T10:58:33.430Z,20.25
2023-01-25T10:59:39.421Z,21.45
2023-01-25T11:00:41.985Z,20.10
2023-01-25T11:01:47.387Z,19.45
2023-01-25T11:02:54.002Z,21.33
2023-01-25T11:03:59.537Z,24.70
2023-01-25T11:05:27.169Z,24.73
2023-01-25T11:06:34.907Z,20.02
2023-01-25T11:07:39.699Z,19.27
2023-01-25T11:08:46.104Z,19.25
2023-01-25T11:09:53.374Z,19.55
2023-01-25T11:10:55.513Z,20.88
2023-01-25T11:12:02.345Z,21.88
2023-01-25T11:13:23.014Z,22.92
2023-01-25T11:14:29.639Z,23.83
2023-01-25T11:15:34.643Z,21.55
2023-01-25T11:16:43.855Z,21.92
2023-01-25T11:17:45.850Z,21.20
2023-01-25T11:18:55.898Z,21.70
2023-01-25T11:20:19.338Z,20.42
2023-01-25T11:21:25.826Z,21.10
2023-01-25T11:22:30.569Z,20.65
2023-01-25T11:23:33.944Z,19.98
2023-01-25T11:24:39.447Z,24.30
2023-01-25T11:25:44.126Z,23.15
2023-01-25T11:26:49.290Z,22.88
2023-01-25T11:27:51.289Z,23.45
2023-01-25T11:29:10.434Z,26.85
2023-01-25T11:30:21.623Z,26.25
2023-01-25T11:31:27.460Z,24.98
2023-01-25T11:32:29.594Z,25.77
2023-01-25T11:33:34.481Z,24.95
2023-01-25T11:34:39.440Z,25.35
2023-01-25T11:36:04.895Z,24.25
2023-01-25T11:37:23.081Z,26.23
2023-01-25T11:38:28.475Z,24.95
2023-01-25T11:39:45.589Z,24.67
2023-01-25T11:41:00.418Z,25.20
2023-01-25T11:42:15.433Z,24.02
2023-01-25T11:43:32.540Z,25.88
2023-01-25T11:45:10.371Z,24.00
2023-01-25T11:46:41.178Z,29.80
2023-01-25T11:47:57.807Z,22.05
2023-01-25T11:49:14.737Z,21.73
2023-01-25T11:50:27.035Z,21.38
2023-01-25T11:51:37.186Z,20.63
2023-01-25T11:53:03.139Z,18.85
2023-01-25T11:54:48.909Z,18.58
2023-01-25T11:56:02.803Z,20.65
2023-01-25T11:57:21.684Z,20.88
2023-01-25T11:58:45.789Z,20.85
2023-01-25T12:00:12.721Z,21.52
2023-01-25T12:01:26.494Z,25.60
2023-01-25T12:02:52.797Z,28.85
2023-01-25T12:04:28.253Z,23.25
2023-01-25T12:05:46.485Z,25.45
2023-01-25T12:07:02.879Z,26.55
2023-01-25T12:08:22.908Z,23.52
2023-01-25T12:09:43.529Z,23.50
2023-01-25T12:11:00.004Z,28.67
2023-01-25T12:12:14.201Z,31.27
2023-01-25T12:13:28.572Z,30.65
2023-01-25T12:14:45.954Z,30.98
2023-01-25T12:16:12.043Z,25.48
2023-01-25T12:17:34.672Z,23.73
2023-01-25T12:19:07.127Z,24.73
2023-01-25T12:20:31.608Z,28.13
2023-01-25T12:21:50.453Z,25.77
2023-01-25T12:23:18.107Z,26.42
2023-01-25T12:24:37.639Z,24.90
2023-01-25T12:25:48.400Z,23.75
2023-01-25T12:27:03.860Z,23.57
2023-01-25T12:28:16.823Z,22.83
2023-01-25T12:29:28.175Z,20.35
2023-01-25T12:30:44.987Z,20.52
2023-01-25T12:31:55.012Z,19.23
2023-01-25T12:33:14.348Z,20.33
2023-01-25T12:34:24.533Z,20.92
2023-01-25T12:35:36.099Z,20.58
2023-01-25T12:36:45.970Z,20.90
2023-01-25T12:37:49.778Z,20.90
2023-01-25T12:39:00.622Z,21.45
2023-01-25T12:40:12.400Z,23.77
2023-01-25T12:41:29.209Z,21.92
2023-01-25T12:42:42.656Z,21.48
2023-01-25T12:43:53.296Z,20.95
2023-01-25T12:45:03.785Z,21.95
2023-01-25T12:46:17.775Z,19.38
2023-01-25T12:47:28.073Z,18.25
2023-01-25T12:48:36.720Z,19.20
2023-01-25T12:49:45.623Z,20.08
2023-01-25T12:50:55.230Z,19.35
2023-01-25T12:52:04.318Z,19.52
2023-01-25T12:53:13.864Z,20.00
2023-01-25T12:54:26.249Z,19.65
2023-01-25T12:55:31.931Z,20.98
2023-01-25T12:56:45.489Z,20.88
2023-01-25T12:58:01.067Z,20.20
2023-01-25T12:59:17.802Z,21.27
2023-01-25T13:00:30.368Z,22.83
2023-01-25T13:01:43.191Z,25.85
2023-01-25T13:03:03.223Z,20.45
2023-01-25T13:04:23.580Z,18.92
2023-01-25T13:05:37.787Z,19.88
2023-01-25T13:06:50.560Z,19.23
2023-01-25T13:08:05.599Z,18.67
2023-01-25T13:09:16.754Z,17.65
2023-01-25T13:10:27.306Z,19.80
2023-01-25T13:11:37.782Z,18.88
2023-01-25T13:13:00.999Z,18.25
2023-01-25T13:14:41.517Z,22.42
2023-01-25T13:15:47.841Z,24.33
2023-01-25T13:17:09.033Z,29.65
2023-01-25T13:18:42.418Z,25.77
2023-01-25T13:19:47.349Z,24.20
2023-01-25T13:20:54.066Z,23.23
2023-01-25T13:21:59.825Z,24.30
2023-01-25T13:23:01.963Z,22.13
2023-01-25T13:24:18.713Z,21.40
2023-01-25T13:25:22.836Z,18.73
2023-01-25T13:26:51.758Z,19.50
2023-01-25T13:28:43.260Z,21.35
2023-01-25T13:29:49.493Z,20.70
2023-01-25T13:30:56.261Z,19.85
2023-01-25T13:31:59.625Z,19.27
2023-01-25T13:33:07.421Z,18.90
2023-01-25T13:34:12.720Z,18.88
2023-01-25T13:35:27.265Z,19.10
2023-01-25T13:36:48.597Z,20.55
2023-01-25T13:37:59.292Z,21.17
2023-01-25T13:39:04.568Z,19.98
2023-01-25T13:40:37.401Z,20.13
2023-01-25T13:42:01.185Z,20.17
2023-01-25T13:43:20.741Z,21.13
2023-01-25T13:44:29.350Z,21.10
2023-01-25T13:45:38.022Z,20.75
2023-01-25T13:46:40.037Z,20.00
2023-01-25T13:47:47.292Z,18.98
2023-01-25T13:49:02.696Z,18.70
2023-01-25T13:50:21.566Z,19.83
2023-01-25T13:51:25.148Z,21.77
2023-01-25T13:52:32.380Z,18.92
2023-01-25T13:53:35.471Z,20.67
2023-01-25T13:54:46.222Z,21.13
2023-01-25T13:55:50.645Z,22.30
2023-01-25T13:57:07.162Z,22.38
2023-01-25T13:58:21.372Z,21.48
2023-01-25T13:59:30.470Z,22.00
2023-01-25T14:00:32.578Z,20.90
2023-01-25T14:01:39.206Z,21.73
2023-01-25T14:02:43.157Z,21.13
2023-01-25T14:03:49.915Z,19.40
2023-01-25T14:04:53.175Z,21.65
2023-01-25T14:06:02.590Z,22.92
2023-01-25T14:07:10.117Z,24.85
2023-01-25T14:08:15.875Z,24.17
2023-01-25T14:09:22.881Z,27.63
2023-01-25T14:10:30.911Z,34.65
2023-01-25T14:11:34.865Z,40.15
2023-01-25T14:12:42.334Z,25.67
2023-01-25T14:14:02.009Z,26.52
2023-01-25T14:15:25.114Z,27.27
2023-01-25T14:16:30.530Z,20.20
2023-01-25T14:17:35.287Z,20.90
2023-01-25T14:18:43.213Z,26.92
2023-01-25T14:19:50.129Z,28.30
2023-01-25T14:20:53.701Z,25.55
2023-01-25T14:22:14.799Z,21.40
2023-01-25T14:23:22.607Z,24.05
2023-01-25T14:24:27.375Z,20.92
2023-01-25T14:25:32.747Z,22.35
2023-01-25T14:26:39.413Z,21.17
2023-01-25T14:27:49.070Z,22.80
2023-01-25T14:29:02.293Z,20.05
2023-01-25T14:30:20.774Z,21.98